Edwards Creek Valley, Nevada Weather observations

Data are for observation ending at time listed.
 Day   Time    Ave.   Ave.  Ave.  Vector   Max.   Stn.    Total    Solar   Ave.  
  of    of     Air    Rel.  Wind   Wind    Wind   Baro.  Precip.   Rad.    Soil  
Year   Day     Temp.  Hum.  Speed  Dir.    Gust   Pres.                    Temp. 
2017   (PST)    F      %     mph   deg.    mph     mb.     in.     W/m2     F   
------------------------------------------------------------------------------
  21    0:30   25.5    86    7.0   221      8.9    822     0.00       0     31.6
  21    0:40   25.7    84    8.2   222     10.5    823     0.00       0     31.6
  21    0:50   25.7    83    8.6   224     11.6    822     0.00       0     31.6
  21    1:00   26.5    80    8.7   224     10.7    822     0.00       0     31.6
  21    1:10   26.3    80    8.5   218     11.5    823     0.00       0     31.6
  21    1:20   26.4    80    9.1   212     11.5    823     0.00       0     31.6
  21    1:30   27.0    80    7.6   229     10.5    823     0.00       0     31.6
  21    1:40   26.2    82    6.3   229      8.3    823     0.00       0     31.6
  21    1:50   26.0    82    5.1   238      6.9    823     0.00       0     31.6
  21    2:00   25.1    84    5.7   220      8.6    823     0.00       0     31.6
  21    2:10   26.4    84    7.1   213      9.8    824     0.00       0     31.6
  21    2:20   27.2    83    5.4   216      7.5    824     0.00       0     31.6
  21    2:30   27.1    82    4.8   205      7.8    824     0.00       0     31.6
  21    2:40   27.4    81    5.9   207      8.3    824     0.00       0     31.6
  21    2:50   28.3    78    7.1   214      9.6    824     0.00       0     31.6
  21    3:00   28.5    78    5.8   204      8.1    824     0.00       0     31.6
  21    3:10   28.3    79    6.6   208      8.9    824     0.00       0     31.6
  21    3:20   28.7    78    6.8   207     11.3    824     0.00       0     31.6
  21    3:30   29.2    76    7.7   208     11.1    824     0.00       0     31.6
  21    3:40   29.3    75    7.8   211     11.8    825     0.00       0     31.6
  21    3:50   29.5    74    6.8   208     10.7    825     0.00       0     31.6
  21    4:00   29.1    75    5.7   205     11.5    825     0.00       0     31.6
  21    4:10   28.9    74    6.4   204     11.7    825     0.00       0     31.6
  21    4:20   27.9    77    5.4   203      9.7    825     0.00       0     31.6
  21    4:30   27.3    78    3.5   203      7.9    825     0.00       0     31.6
  21    4:40   26.8    78    2.5   200      5.9    825     0.00       0     31.6
  21    4:50   26.5    78    4.0   202      9.1    826     0.00       0     31.6
  21    5:00   26.6    78    3.2   200      8.1    826     0.00       0     31.6
  21    5:10   26.0    77    2.8   203      7.2    826     0.00       0     31.6
  21    5:20   25.3    78    5.0   206      8.3    826     0.00       0     31.6
  21    5:30   24.2    79    6.6   204      9.1    826     0.00       0     31.6
  21    5:40   24.6    79    6.7   205      9.8    826     0.00       0     31.6
  21    5:50   24.4    79    6.2   202     10.2    827     0.00       0     31.6
  21    6:00   24.5    79    6.2   203     10.4    827     0.00       0     31.6
  21    6:10   25.0    77    7.5   204     11.0    827     0.00       0     31.6
  21    6:20   25.7    77    7.3   203     10.8    827     0.00       0     31.6
  21    6:30   25.7    76    8.3   207     13.4    827     0.00       0     31.6
  21    6:40   25.2    76    7.5   206     11.2    827     0.00       0     31.6
  21    6:50   24.9    76    7.1   213     10.9    827     0.00       0     31.6
  21    7:00   24.8    74    6.2   207      9.6    828     0.00       0     31.6
  21    7:10   24.7    74    7.6   208     11.9    828     0.00       2     31.6
  21    7:20   26.0    72    7.0   207     10.6    828     0.00       8     31.6
  21    7:30   26.5    73    8.6   222     12.6    828     0.00      14     31.6
  21    7:40   26.6    73    7.6   210     12.4    828     0.00      33     31.6
  21    7:50   27.6    72    8.7   210     11.7    829     0.00      28     31.6
  21    8:00   27.3    73    8.8   210     12.9    829     0.00      23     31.6
  21    8:10   27.3    74    8.4   212     11.1    829     0.00      19     31.6
  21    8:20   27.6    73    6.8   216      9.3    829     0.00      25     31.6
  21    8:30   27.4    74    6.5   212      8.9    830     0.00      26     31.6
  21    8:40   27.5    73    6.7   224      8.9    830     0.00      52     31.6
  21    8:50   28.4    72    5.9   223      8.5    830     0.00      68     31.6
  21    9:00   28.6    71    6.0   228      8.9    830     0.00      72     31.6
  21    9:10   30.8    67    6.2   225     10.7    831     0.00     132     31.7
  21    9:20   31.9    64    5.5   223      8.9    831     0.00      93     31.7
  21    9:30   31.8    62    6.0   218      8.3    832     0.00      64     31.7
  21    9:40   32.3    61    5.1   205     11.1    832     0.00      81     31.7
  21    9:50   32.6    62    6.8   212     11.0    832     0.01     109     31.7
  21   10:00   33.0    62    7.5   221     12.3    832     0.00     176     31.7
  21   10:10   33.3    62    8.4   217     12.1    832     0.00     155     31.7
  21   10:20   32.9    63    7.5   229     14.5    832     0.00     129     31.7
  21   10:30   32.6    63    8.3   223     13.2    832     0.00     124     31.7
  21   10:40   33.9    60    8.3   208     13.1    833     0.01     202     31.8
  21   10:50   34.3    58    5.6   201     16.8    832     0.00     139     31.7
  21   11:00   34.1    57    4.8   188     13.3    832     0.00     104     31.8
  21   11:10   34.6    57    4.0   190     11.9    833     0.01     171     31.8
  21   11:20   36.4    53    4.5   194     13.2    833     0.02     350     31.7
  21   11:30   37.3    53    4.5   197     11.5    833     0.00     435     31.7
  21   11:40   36.5    53    5.0   198     11.6    833     0.02     557     31.7
  21   11:50   36.5    55    5.5   202     12.6    833     0.00     576     31.8
  21   12:00   36.2    56    6.5   202     12.8    833     0.01     441     31.8
  21   12:10   35.6    56    7.4   203     13.1    833     0.00     448     31.8
  21   12:20   35.5    57    8.7   203     14.9    833     0.00     526     31.8
  21   12:30   35.4    57    8.4   203     13.8    833     0.00     490     31.8
  21   12:40   35.8    55    6.5   199     12.6    833     0.00     485     31.8
  21   12:50   35.8    56    6.8   202     11.2    833     0.00     354     31.8
  21   13:00   35.9    54    6.7   203     12.9    833     0.00     371     31.8
  21   13:10   36.2    53    4.9   198     11.5    834     0.00     361     31.8
  21   13:20   37.6    52    4.2   200      9.9    834     0.00     400     31.8
  21   13:30   37.1    56    4.5   200      9.8    834     0.00     403     31.8
  21   13:40   37.7    55    4.5   203     11.3    834     0.00     432     31.8
  21   13:50   38.1    53    5.4   200     10.5    834     0.00     485     31.8
  21   14:00   37.9    53    7.9   202     13.6    834     0.00     507     31.8
  21   14:10   37.6    54    7.1   209     14.1    834     0.00     493     31.8
  21   14:20   37.7    55    7.7   224     11.9    835     0.00     465     31.8
  21   14:30   37.1    56    9.6   217     15.3    834     0.00     425     31.8
  21   14:40   37.2    56    8.4   214     13.4    835     0.00     415     31.9
  21   14:50   36.2    58    8.3   205     13.3    835     0.00     211     31.8
  21   15:00   35.4    61    8.1   206     13.7    835     0.00     279     31.8
  21   15:10   36.1    60    7.6   213     12.1    835     0.00     294     31.8
  21   15:20   35.8    60    6.1   207     10.0    835     0.00     225     31.8
  21   15:30   35.4    61    6.9   208      9.7    835     0.00     242     31.9
  21   15:40   34.8    63    5.3   218      8.0    835     0.00     115     31.9
  21   15:50   34.6    64    8.0   206     15.9    835     0.00     216     31.8
  21   16:00   33.6    67    3.8   189     11.0    835     0.00      50     31.8
  21   16:10   32.2    68    4.6   201      8.8    836     0.00      20     31.8
  21   16:20   31.1    69    4.3   199      8.3    836     0.00      15     31.8
  21   16:30   30.9    72    8.4   204     17.8    836     0.00      18     31.8
  21   16:40   31.4    79    4.4   199     15.1    836     0.00      30     31.8
  21   16:50   30.1    79    2.9   174      5.7    836     0.00       7     31.8
  21   17:00   27.1    83    6.2   129      7.3    836     0.00       4     31.8
  21   17:10   26.6    84    7.0   114      8.5    836     0.00       2     31.7
  21   17:20   25.8    83    7.0   126      8.5    836     0.00       0     31.7
  21   17:30   25.6    83    6.0   136      7.4    836     0.00       0     31.7
  21   17:40   25.5    80    5.3   156      7.1    836     0.00       0     31.7
  21   17:50   25.3    77    6.2   165      8.0    836     0.00       0     31.7
  21   18:00   24.8    75    2.5   198      4.9    836     0.00       0     31.7
  21   18:10   22.7    78    5.1   272      7.4    836     0.00       0     31.7
  21   18:20   22.1    83    4.1   145      7.7    837     0.00       0     31.7
  21   18:30   25.0    78    4.4   120      6.8    837     0.00       0     31.7
  21   18:40   25.4    77    3.8   153      7.5    837     0.00       0     31.7
  21   18:50   26.8    71    2.6   223      5.3    837     0.00       0     31.7
  21   19:00   25.7    72    4.3   231      6.9    837     0.00       0     31.7
  21   19:10   25.3    72    3.0   218      6.2    837     0.00       0     31.7
  21   19:20   25.0    74    4.6   110      9.9    837     0.00       0     31.7
  21   19:30   27.1    69    3.4   123      5.4    837     0.00       0     31.7
  21   19:40   28.1    66    3.5   183      7.1    837     0.00       0     31.7
  21   19:50   28.8    64    4.8   225      6.3    837     0.00       0     31.7
  21   20:00   28.0    65    2.2   241      4.3    837     0.00       0     31.7
  21   20:10   26.8    70    4.7    19      7.4    838     0.00       0     31.7
  21   20:20   27.8    65    3.2   318      4.7    838     0.00       0     31.7
  21   20:30   27.9    65    2.9   257      4.1    837     0.00       0     31.7
  21   20:40   26.7    70    3.5   162      9.8    838     0.00       0     31.7
  21   20:50   25.4    78    3.0    40      6.9    838     0.00       0     31.7
  21   21:00   25.5    77    1.1   148      3.9    838     0.00       0     31.7
  21   21:10   24.7    79    3.7    49      4.7    837     0.00       0     31.7
  21   21:20   24.4    80    1.8   318      4.8    837     0.00       0     31.7
  21   21:30   23.4    81    2.9   302      4.5    838     0.00       0     31.7
  21   21:40   23.2    83    3.5   309      5.1    838     0.00       0     31.7
  21   21:50   22.8    83    1.6   329      2.7    838     0.00       0     31.7
  21   22:00   22.7    84    1.2   229      2.4    838     0.00       0     31.7
  21   22:10   22.8    84    1.8   208      3.3    837     0.00       0     31.7
  21   22:20   22.7    85    2.0   184      4.1    837     0.00       0     31.6
  21   22:30   22.7    85    1.2   174      3.4    838     0.00       0     31.6
  21   22:40   23.3    84    1.6   146      4.5    837     0.00       0     31.6
  21   22:50   23.1    85    3.9   127      6.1    837     0.00       0     31.6
  21   23:00   23.4    86    2.6   179      3.9    837     0.00       0     31.6
  21   23:10   22.9    86    2.0   229      3.1    837     0.00       0     31.6
  21   23:20   22.6    86    2.4   238      3.9    837     0.00       0     31.6
  21   23:30   22.0    86    2.4   250      4.3    837     0.00       0     31.6
  21   23:40   22.1    87    2.6   227      4.1    837     0.00       0     31.6
  21   23:50   22.6    86    2.3   238      3.8    837     0.00       0     31.6
  22    0:00   22.7    85    2.7   221      4.2    837     0.00       0     31.6
  22    0:10   23.0    86    1.9   163      3.7    836     0.00       0     31.6
  22    0:20   23.6    85    1.6   138      2.9    836     0.00       0     31.6

Return to Carson Sink graphs page.


Western Regional Climate Center,wrcc@dri.edu